Data for 06/22/2008

Time Sea-Level Adjusted Pressure Absolute Pressure Temperature Relative Humidity Dew Point   
(mb) (inHg) (mb) (inHg) (C) (F) (%) (C) (F)
00:05 1019 30.09 848 25.04 20.8 69.5 38 6.3 43.3
00:10 1019 30.09 848 25.04 20.6 69.1 39 6.4 43.5
00:15 1019 30.09 848 25.04 20.5 69 39 6.3 43.4
00:20 1019 30.09 848 25.04 20.7 69.2 39 6.4 43.5
00:25 1019 30.09 848 25.04 20.6 69.1 40 6.8 44.2
00:30 1019 30.09 848 25.04 20.6 69 40 6.8 44.2
00:35 1019 30.09 848 25.04 20.6 69.1 41 7 44.6
00:40 1019 30.09 848 25.04 20.5 68.9 42 7.2 44.9
00:45 1019 30.09 848 25.04 20.4 68.7 42 7.3 45.1
00:50 1019 30.09 848 25.04 20.4 68.7 42 7.4 45.2
00:55 1018 30.06 848 25.04 20.3 68.6 43 7.6 45.7
01:00 1018 30.06 848 25.04 20.1 68.2 44 7.7 45.9
01:05 1018 30.06 848 25.04 20 68 45 7.7 45.9
01:10 1018 30.06 847 25.01 20 67.9 45 7.7 45.9
01:15 1018 30.06 847 25.01 19.9 67.7 45 7.9 46.1
01:20 1018 30.06 847 25.01 19.8 67.6 46 7.9 46.2
01:25 1018 30.06 847 25.01 19.7 67.4 46 7.8 46.1
01:30 1018 30.06 847 25.01 19.6 67.3 46 7.9 46.2
01:35 1018 30.06 847 25.01 19.5 67.2 46 7.8 46.1
01:40 1018 30.06 847 25.01 19.6 67.2 46 7.9 46.2
01:45 1018 30.06 847 25.01 19.6 67.2 46 7.9 46.2
01:50 1018 30.06 847 25.01 19.6 67.3 46 7.9 46.3
01:55 1018 30.06 847 25.01 19.6 67.2 47 8 46.4
02:00 1018 30.06 847 25.01 19.5 67.1 47 8 46.4
02:05 1018 30.06 847 25.01 19.5 67.2 47 7.9 46.3
02:10 1018 30.06 847 25.01 19.6 67.3 46 8 46.3
02:15 1018 30.06 847 25.01 19.6 67.4 46 8 46.4
02:20 1018 30.06 847 25.01 19.5 67.1 47 8 46.3
02:25 1018 30.06 847 25.01 19.3 66.8 47 7.9 46.3
02:30 1018 30.06 847 25.01 19.3 66.8 47 8 46.3
02:35 1018 30.06 848 25.04 19.3 66.7 47 7.9 46.2
02:40 1019 30.09 848 25.04 19.2 66.6 47 7.8 46.1
02:45 1019 30.09 848 25.04 18.9 66.1 47 7.5 45.6
02:50 1018 30.06 848 25.04 18.8 65.9 46 7.1 44.8
02:55 1019 30.09 848 25.04 19 66.1 47 7.6 45.6
03:00 1019 30.09 848 25.04 18.9 66.1 48 7.7 45.9
03:05 1019 30.09 848 25.04 19 66.1 48 7.9 46.1
03:10 1018 30.06 848 25.04 18.9 66 48 7.9 46.2
03:15 1018 30.06 847 25.01 18.8 65.9 49 7.9 46.3
03:20 1018 30.06 847 25.01 18.9 65.9 47 7.5 45.6
03:25 1018 30.06 848 25.04 18.9 66.1 49 8.1 46.6
03:30 1018 30.06 848 25.04 18.6 65.4 49 7.7 45.9
03:35 1018 30.06 847 25.01 18.5 65.3 48 7.4 45.3
03:40 1018 30.06 847 25.01 18.6 65.5 48 7.5 45.5
03:45 1019 30.09 848 25.04 18.3 64.9 49 7.4 45.3
03:50 1019 30.09 848 25.04 18.3 64.9 52 8.4 47.1
03:55 1019 30.09 848 25.04 17.9 64.2 48 6.9 44.5
04:00 1020 30.12 849 25.07 17.7 63.9 43 5.1 41.1
04:05 1020 30.12 849 25.07 17.4 63.3 39 3.5 38.3
04:10 1020 30.12 849 25.07 17.2 63 43 4.7 40.5
04:15 1021 30.15 850 25.1 16.7 62.1 43 4.2 39.6
04:20 1021 30.15 850 25.1 16.3 61.3 46 4.8 40.6
04:25 1021 30.15 850 25.1 16.1 60.9 49 5.5 42
04:30 1021 30.15 850 25.1 15.8 60.4 52 6 42.7
04:35 1021 30.15 850 25.1 15.6 60.1 52 6 42.8
04:40 1021 30.15 851 25.13 15.6 60 54 6.4 43.6
04:45 1022 30.18 851 25.13 15.4 59.8 55 6.4 43.5
04:50 1022 30.18 851 25.13 15.2 59.3 55 6.2 43.2
04:55 1022 30.18 851 25.13 15.3 59.5 55 6.4 43.5
05:00 1022 30.18 851 25.13 15.2 59.4 55 6.4 43.5
05:05 1022 30.18 851 25.13 15.2 59.3 57 6.8 44.2
05:10 1022 30.18 851 25.13 15.1 59.2 58 7.1 44.7
05:15 1022 30.18 851 25.13 15.4 59.8 55 6.6 43.8
05:20 1022 30.18 851 25.13 15.6 60 55 6.6 43.9
05:25 1022 30.18 851 25.13 15.6 60 60 8 46.4
05:30 1022 30.18 851 25.13 15.6 60.1 59 7.7 45.8
05:35 1022 30.18 851 25.13 15.7 60.3 54 6.4 43.6
05:40 1021 30.15 851 25.13 15.5 59.9 53 6 42.8
05:45 1021 30.15 851 25.13 15.3 59.6 55 6.3 43.4
05:50 1021 30.15 850 25.1 15.3 59.5 53 5.8 42.5
05:55 1021 30.15 851 25.13 15.4 59.8 53 6 42.8
06:00 1021 30.15 850 25.1 15.5 60 56 6.8 44.2
06:05 1021 30.15 850 25.1 15.3 59.6 56 6.6 43.9
06:10 1021 30.15 850 25.1 15 59 62 7.8 46.1
06:15 1021 30.15 850 25.1 15 59.1 58 7 44.7
06:20 1021 30.15 850 25.1 15.4 59.6 56 6.6 43.9
06:25 1021 30.15 850 25.1 15.7 60.3 54 6.6 44
06:30 1021 30.15 850 25.1 16 60.8 52 6.3 43.4
06:35 1021 30.15 850 25.1 16.3 61.3 52 6.6 43.8
06:40 1021 30.15 850 25.1 16.3 61.3 50 6.1 42.9
06:45 1021 30.15 850 25.1 16.5 61.7 51 6.3 43.4
06:50 1021 30.15 850 25.1 16.6 61.9 48 5.6 42.1
06:55 1021 30.15 850 25.1 16.9 62.3 52 7 44.7
07:00 1021 30.15 850 25.1 16.7 62 51 6.5 43.8
07:05 1021 30.15 850 25.1 16.4 61.6 56 7.6 45.7
07:10 1021 30.15 850 25.1 16.5 61.6 52 6.6 43.9
07:15 1021 30.15 850 25.1 16.7 62 51 6.7 44
07:20 1021 30.15 850 25.1 16.9 62.5 52 7.2 45
07:25 1021 30.15 850 25.1 16.5 61.8 55 7.6 45.7
07:30 1021 30.15 850 25.1 16.7 62 53 7.1 44.8
07:35 1021 30.15 850 25.1 16.8 62.2 54 7.4 45.3
07:40 1021 30.15 850 25.1 17.1 62.7 52 7.3 45.1
07:45 1021 30.15 850 25.1 17.5 63.5 51 7.5 45.5
07:50 1021 30.15 850 25.1 18.6 65.4 48 7.4 45.3
07:55 1021 30.15 850 25.1 19.5 67.2 45 7.5 45.5
08:00 1021 30.15 850 25.1 20 67.9 43 7 44.6
08:05 1021 30.15 850 25.1 20.8 69.4 40 6.9 44.5
08:10 1021 30.15 850 25.1 20.7 69.3 41 7.3 45.1
08:15 1021 30.15 850 25.1 20.5 69 41 6.9 44.4
08:20 1021 30.15 850 25.1 21 69.8 40 7.1 44.8
08:25 1021 30.15 850 25.1 21.1 70 39 6.7 44.1
08:30 1021 30.15 850 25.1 21.4 70.6 36 6 42.8
08:35 1021 30.15 850 25.1 21.8 71.2 37 6.8 44.2
08:40 1021 30.15 850 25.1 21.6 70.8 37 6.4 43.6
08:45 1021 30.15 850 25.1 21.8 71.2 35 5.9 42.7
08:50 1021 30.15 850 25.1 22.1 71.7 37 6.8 44.2
08:55 1021 30.15 850 25.1 22.1 71.8 33 5.3 41.6
09:00 1021 30.15 850 25.1 22.5 72.6 32 5 41
09:05 1021 30.15 850 25.1 22.6 72.7 33 5.6 42.1
09:10 1021 30.15 850 25.1 22.6 72.8 32 5.2 41.4
09:15 1021 30.15 850 25.1 21.7 71 35 5.7 42.3
09:20 1021 30.15 850 25.1 22.5 72.5 32 5.3 41.5
09:25 1021 30.15 850 25.1 23.2 73.7 31 5.5 41.9
09:30 1021 30.15 850 25.1 23.5 74.3 31 5.5 41.9
09:35 1021 30.15 850 25.1 23.8 74.9 33 6.8 44.2
09:40 1021 30.15 850 25.1 23.6 74.5 32 6.2 43.2
09:45 1021 30.15 850 25.1 23.4 74 32 6 42.8
09:50 1021 30.15 850 25.1 23.4 74 32 6 42.7
09:55 1021 30.15 850 25.1 23.5 74.2 32 5.9 42.7
10:00 1021 30.15 850 25.1 23.7 74.6 32 6.2 43.2
10:05 1021 30.15 850 25.1 23.7 74.7 33 6.9 44.4
10:10 1021 30.15 850 25.1 22.9 73.2 35 6.8 44.2
10:15 1021 30.15 850 25.1 23 73.4 35 7 44.6
10:20 1021 30.15 850 25.1 22.9 73.1 37 7.4 45.4
10:25 1021 30.15 850 25.1 22.6 72.6 37 7.4 45.3
10:30 1021 30.15 850 25.1 22.5 72.4 39 8.1 46.6
10:35 1021 30.15 850 25.1 21.7 71.1 41 8 46.5
10:40 1021 30.15 850 25.1 21.5 70.7 41 7.8 46.1
10:45 1021 30.15 850 25.1 21.3 70.4 41 7.6 45.7
10:50 1021 30.15 850 25.1 21.3 70.4 40 7.3 45.2
10:55 1021 30.15 850 25.1 21.6 70.9 38 6.8 44.2
11:00 1021 30.15 850 25.1 21.6 70.8 39 7.1 44.8
11:05 1021 30.15 850 25.1 21.6 70.9 39 7.4 45.3
11:10 1021 30.15 850 25.1 22 71.6 37 6.6 44
11:15 1021 30.15 850 25.1 22.6 72.7 35 6.6 43.8
11:20 1021 30.15 850 25.1 22.8 73 33 5.9 42.7
11:25 1021 30.15 850 25.1 23.2 73.8 32 5.9 42.6
11:30 1021 30.15 850 25.1 22.9 73.1 33 6 42.7
11:35 1021 30.15 850 25.1 22.3 72.1 35 6.3 43.4
11:40 1021 30.15 850 25.1 22.7 72.9 33 5.9 42.6
11:45 1021 30.15 850 25.1 22.7 72.8 35 6.7 44
11:50 1020 30.12 850 25.1 22.7 72.9 33 5.6 42.1
11:55 1020 30.12 850 25.1 23.5 74.3 32 6.3 43.3
12:00 1020 30.12 850 25.1 23.8 74.8 31 6.1 42.9
12:05 1020 30.12 850 25.1 22.9 73.1 34 6.3 43.4
12:10 1020 30.12 850 25.1 22.4 72.4 34 5.8 42.5
12:15 1020 30.12 850 25.1 23.5 74.2 32 6.1 43
12:20 1020 30.12 849 25.07 24 75.1 31 6.1 42.9
12:25 1020 30.12 849 25.07 24.4 76 31 6.4 43.5
12:30 1020 30.12 849 25.07 24.8 76.7 31 6.7 44.1
12:35 1020 30.12 849 25.07 24.8 76.7 29 5.6 42.1
12:40 1020 30.12 849 25.07 24.8 76.7 29 5.8 42.5
12:45 1020 30.12 849 25.07 24.9 76.7 29 5.7 42.3
12:50 1020 30.12 849 25.07 24.6 76.2 30 5.9 42.7
12:55 1020 30.12 849 25.07 24.8 76.6 28 5.3 41.5
13:00 1020 30.12 849 25.07 25.4 77.7 30 6.6 43.9
13:05 1020 30.12 849 25.07 25 77 28 5.5 41.9
13:10 1020 30.12 849 25.07 25.2 77.4 28 5.7 42.2
13:15 1020 30.12 849 25.07 25.2 77.3 29 6 42.7
13:20 1020 30.12 849 25.07 25.3 77.5 29 6 42.8
13:25 1020 30.12 849 25.07 25.2 77.4 28 5.7 42.3
13:30 1020 30.12 849 25.07 25.7 78.3 26 5.2 41.4
13:35 1020 30.12 849 25.07 25.8 78.5 26 4.9 40.9
13:40 1020 30.12 849 25.07 26.2 79.1 26 5.6 42
13:45 1019 30.09 849 25.07 26.2 79.2 23 4 39.1
13:50 1019 30.09 849 25.07 26 78.8 25 4.7 40.4
13:55 1019 30.09 849 25.07 26.7 80 24 4.9 40.9
14:00 1019 30.09 849 25.07 26.4 79.4 25 5.1 41.2
14:05 1019 30.09 848 25.04 25.9 78.7 25 4.6 40.3
14:10 1019 30.09 848 25.04 26.4 79.6 23 4 39.2
14:15 1019 30.09 848 25.04 26.5 79.7 24 4.6 40.3
14:20 1019 30.09 848 25.04 26.2 79.1 24 4.5 40.1
14:25 1019 30.09 848 25.04 26.1 79 24 4.5 40.2
14:30 1019 30.09 848 25.04 26.4 79.6 24 4.3 39.8
14:35 1019 30.09 848 25.04 26.1 78.9 24 4.4 39.8
14:40 1019 30.09 848 25.04 26.3 79.3 26 5.7 42.3
14:45 1019 30.09 848 25.04 25.8 78.5 27 5.9 42.7
14:50 1019 30.09 848 25.04 25.3 77.6 27 5.2 41.3
14:55 1019 30.09 848 25.04 25.8 78.5 26 5.1 41.1
15:00 1019 30.09 848 25.04 25.8 78.5 25 4.7 40.4
15:05 1019 30.09 848 25.04 26 78.9 26 5.3 41.5
15:10 1019 30.09 848 25.04 25.1 77.2 27 4.9 40.8
15:15 1019 30.09 848 25.04 25.6 78.1 26 4.7 40.5
15:20 1019 30.09 848 25.04 26 78.8 25 4.8 40.7
15:25 1019 30.09 848 25.04 25.7 78.2 25 4.6 40.2
15:30 1018 30.06 848 25.04 26.3 79.3 25 4.7 40.5
15:35 1019 30.09 848 25.04 25.4 77.8 26 4.8 40.7
15:40 1019 30.09 848 25.04 24.3 75.8 28 5 41
15:45 1019 30.09 848 25.04 24.3 75.7 27 4.4 39.9
15:50 1019 30.09 848 25.04 23.9 75.1 27 4.2 39.5
15:55 1019 30.09 848 25.04 24 75.2 26 3.6 38.5
16:00 1019 30.09 848 25.04 24.2 75.5 26 3.5 38.3
16:05 1019 30.09 848 25.04 24.6 76.3 25 3.8 38.8
16:10 1019 30.09 848 25.04 24.5 76.1 26 4.1 39.4
16:15 1019 30.09 848 25.04 24.3 75.7 27 4.5 40.2
16:20 1019 30.09 848 25.04 23.5 74.2 30 5.1 41.2
16:25 1019 30.09 849 25.07 21.8 71.3 48 10.4 50.6
16:30 1019 30.09 849 25.07 19.8 67.6 43 6.8 44.3
16:35 1019 30.09 848 25.04 20.6 69 45 8.3 47
16:40 1019 30.09 848 25.04 20.9 69.6 46 9 48.2
16:45 1019 30.09 848 25.04 21.6 70.9 49 10.6 51.1
16:50 1019 30.09 848 25.04 22.9 73.2 33 5.9 42.7
16:55 1019 30.09 848 25.04 23.7 74.6 38 8.7 47.7
17:00 1019 30.09 848 25.04 24.4 75.9 31 6.3 43.4
17:05 1019 30.09 848 25.04 24.4 75.9 32 7 44.7
17:10 1019 30.09 848 25.04 24.6 76.2 30 5.9 42.6
17:15 1019 30.09 848 25.04 23.3 74 37 8 46.3
17:20 1019 30.09 848 25.04 22.7 72.8 41 8.9 48.1
17:25 1019 30.09 848 25.04 22.5 72.5 38 7.5 45.5
17:30 1019 30.09 848 25.04 22.7 72.8 39 8.1 46.5
17:35 1019 30.09 848 25.04 23.3 73.9 36 7.5 45.5
17:40 1019 30.09 848 25.04 22.8 73 34 6.4 43.5
17:45 1019 30.09 848 25.04 22.3 72.2 38 7.6 45.6
17:50 1019 30.09 848 25.04 22.1 71.8 40 8 46.5
17:55 1019 30.09 848 25.04 22.3 72.2 40 8.4 47.2
18:00 1019 30.09 848 25.04 22.5 72.5 38 7.8 46.1
18:05 1019 30.09 848 25.04 22.4 72.4 39 8.1 46.6
18:10 1019 30.09 848 25.04 22.2 72 40 8 46.4
18:15 1018 30.06 848 25.04 22 71.7 39 7.7 45.9
18:20 1018 30.06 848 25.04 21.9 71.5 40 8.1 46.5
18:25 1019 30.09 848 25.04 21.9 71.4 42 8.7 47.7
18:30 1019 30.09 848 25.04 21.8 71.3 42 8.5 47.3
18:35 1019 30.09 848 25.04 21.8 71.2 43 8.9 48
18:40 1019 30.09 848 25.04 21.6 70.8 43 8.8 47.8
18:45 1019 30.09 848 25.04 21.5 70.7 44 8.7 47.7
18:50 1019 30.09 848 25.04 21.7 71 43 8.8 47.8
18:55 1019 30.09 848 25.04 21.8 71.2 43 8.7 47.7
19:00 1019 30.09 848 25.04 21.8 71.3 44 9.2 48.5
19:05 1019 30.09 848 25.04 21.6 70.9 46 9.6 49.3
19:10 1018 30.06 848 25.04 21.4 70.4 45 9.2 48.6
19:15 1019 30.09 848 25.04 21.2 70.2 40 7.4 45.3
19:20 1019 30.09 848 25.04 20.9 69.7 44 8.5 47.2
19:25 1019 30.09 848 25.04 20.6 69 43 7.7 45.8
19:30 1018 30.06 848 25.04 20.3 68.6 44 7.7 45.9
19:35 1018 30.06 847 25.01 20.2 68.3 44 7.6 45.6
19:40 1018 30.06 848 25.04 20 68 44 7.6 45.7
19:45 1018 30.06 848 25.04 19.9 67.8 45 7.8 46.1
19:50 1018 30.06 848 25.04 19.7 67.5 46 7.9 46.1
19:55 1019 30.09 848 25.04 19.7 67.5 47 8.2 46.8
20:00 1019 30.09 848 25.04 20 68 46 8.1 46.7
20:05 1019 30.09 849 25.07 19.6 67.4 56 10.8 51.4
20:10 1019 30.09 848 25.04 17.8 64 62 10.6 51
20:15 1019 30.09 848 25.04 17.1 62.8 67 10.9 51.7
20:20 1019 30.09 848 25.04 16.8 62.2 70 11.3 52.3
20:25 1019 30.09 849 25.07 16.8 62.3 71 11.5 52.7
20:30 1019 30.09 849 25.07 16.5 61.7 65 10 50
20:35 1019 30.09 848 25.04 16.6 61.9 65 10.1 50.2
20:40 1019 30.09 848 25.04 16.6 61.9 68 10.8 51.4
20:45 1019 30.09 848 25.04 16.2 61.2 77 12.2 53.9
20:50 1019 30.09 848 25.04 15.6 60 75 11.2 52.2
20:55 1019 30.09 848 25.04 15.7 60.3 70 10.3 50.6
21:00 1019 30.09 848 25.04 15.8 60.5 72 10.9 51.6
21:05 1019 30.09 848 25.04 15.9 60.6 70 10.4 50.8
21:10 1019 30.09 848 25.04 15.7 60.3 68 9.9 49.7
21:15 1019 30.09 848 25.04 15.9 60.5 68 10.1 50.2
21:20 1019 30.09 848 25.04 15.6 60 69 10 50
21:25 1019 30.09 848 25.04 15.3 59.5 70 10 50
21:30 1019 30.09 848 25.04 15.2 59.3 72 10.1 50.2
21:35 1019 30.09 848 25.04 15.1 59.2 69 9.6 49.3
21:40 1019 30.09 849 25.07 15.4 59.6 69 9.7 49.4
21:45 1019 30.09 849 25.07 15.3 59.5 70 9.9 49.7
21:50 1019 30.09 849 25.07 15.1 59.2 72 10.2 50.3
21:55 1020 30.12 849 25.07 14.8 58.7 70 9.5 49.2
22:00 1020 30.12 849 25.07 15.1 59.1 68 9.3 48.8
22:05 1020 30.12 849 25.07 15.2 59.3 68 9.5 49.1
22:10 1020 30.12 849 25.07 15.1 59.2 70 9.8 49.7
22:15 1020 30.12 849 25.07 14.9 58.8 71 9.8 49.7
22:20 1020 30.12 849 25.07 14.7 58.5 73 9.9 49.9
22:25 1019 30.09 849 25.07 14.7 58.5 71 9.6 49.3
22:30 1019 30.09 849 25.07 14.9 58.7 71 9.6 49.4
22:35 1019 30.09 849 25.07 15 58.9 69 9.3 48.7
22:40 1019 30.09 849 25.07 15 59 68 9.2 48.6
22:45 1019 30.09 849 25.07 15.1 59.2 66 8.9 48
22:50 1019 30.09 849 25.07 15.4 59.7 65 8.8 47.9
22:55 1019 30.09 849 25.07 15.5 59.9 65 9 48.2
23:00 1019 30.09 849 25.07 15.6 60.1 64 8.9 48
23:05 1020 30.12 849 25.07 15.9 60.5 63 9 48.2
23:10 1020 30.12 849 25.07 15.9 60.5 64 9.1 48.4
23:15 1020 30.12 849 25.07 15.8 60.4 65 9.3 48.8
23:20 1020 30.12 849 25.07 15.8 60.4 65 9.3 48.8
23:25 1020 30.12 850 25.1 15.9 60.6 65 9.4 48.9
23:30 1021 30.15 850 25.1 15.9 60.6 66 9.5 49.1
23:35 1021 30.15 850 25.1 15.5 60 71 10.4 50.8
23:40 1020 30.12 850 25.1 14.5 58.1 74 9.9 49.8
23:45 1020 30.12 850 25.1 14.3 57.7 77 10.3 50.5
23:50 1020 30.12 850 25.1 13.6 56.4 79 10.1 50.2
23:55 1021 30.15 850 25.1 12.9 55.3 81 9.8 49.7
24:00 1021 30.15 850 25.1 12.7 54.8 82 9.8 49.6